Time;durP1;ratioP1;P1;durP2;ratioP2;P2;SDS_P1;SDS_P2;PMS_P1;PMS_P2;Temp;Humidity;BMP_temperature;BMP_pressure;BME280_temperature;BME280_humidity;BME280_pressure;Samples;Min_cycle;Max_cycle;Signal;HPM_P1;HPM_P2
2021/05/24 00:00:51;;;;;;;3.10;2.37;;;12.80;1.00;;;;;;5108725;28;20449;-68
2021/05/24 00:03:18;;;;;;;2.97;2.77;;;12.70;49.80;;;;;;5109405;28;20784;-68
2021/05/24 00:05:45;;;;;;;3.00;2.50;;;12.70;99.90;;;;;;5109319;28;20552;-68
2021/05/24 00:08:11;;;;;;;5.03;3.83;;;12.70;99.90;;;;;;5109162;28;20798;-68
2021/05/24 00:10:41;;;;;;;4.00;3.00;;;12.70;1.00;;;;;;5109334;28;20449;-68
2021/05/24 00:13:09;;;;;;;4.27;3.50;;;12.60;1.00;;;;;;5108708;28;20544;-68
2021/05/24 00:15:37;;;;;;;3.30;3.00;;;12.60;7.60;;;;;;5107957;28;20454;-68
2021/05/24 00:18:04;;;;;;;3.80;3.50;;;12.60;99.90;;;;;;5106556;28;21010;-68
2021/05/24 00:20:36;;;;;;;4.90;3.90;;;12.50;1.00;;;;;;5106517;28;20463;-68
2021/05/24 00:23:04;;;;;;;4.87;3.93;;;12.60;1.00;;;;;;5105901;28;20442;-68
2021/05/24 00:25:30;;;;;;;3.87;3.47;;;12.60;1.00;;;;;;5106449;28;20479;-68
2021/05/24 00:27:58;;;;;;;3.50;3.30;;;12.50;1.00;;;;;;5107425;28;20656;-68
2021/05/24 00:30:26;;;;;;;6.00;4.37;;;12.50;1.00;;;;;;5107564;28;20449;-68
2021/05/24 00:33:00;;;;;;;7.50;4.20;;;12.50;18.00;;;;;;5106905;28;20969;-68
2021/05/24 00:35:26;;;;;;;4.30;3.80;;;12.50;99.90;;;;;;5107469;28;20433;-68
2021/05/24 00:37:53;;;;;;;4.10;3.70;;;12.50;99.90;;;;;;5106830;28;20469;-68
2021/05/24 00:40:20;;;;;;;4.67;3.40;;;12.40;99.90;;;;;;5107740;28;20535;-68
2021/05/24 00:42:46;;;;;;;4.63;4.13;;;12.40;99.90;;;;;;5107377;28;20449;-68
2021/05/24 00:45:13;;;;;;;3.80;3.50;;;12.40;1.00;;;;;;5105831;28;20524;-68
2021/05/24 00:47:40;;;;;;;3.80;3.50;;;12.30;1.00;;;;;;5106046;28;20450;-68
2021/05/24 00:50:08;;;;;;;4.33;3.63;;;12.30;1.00;;;;;;5103093;28;20453;-68
2021/05/24 00:52:35;;;;;;;3.60;3.30;;;12.30;1.00;;;;;;5107334;28;20477;-68
2021/05/24 00:55:01;;;;;;;4.83;3.97;;;12.30;1.00;;;;;;5109993;28;20457;-68
2021/05/24 00:57:28;;;;;;;4.30;3.73;;;12.30;1.00;;;;;;5108305;28;20496;-68
2021/05/24 00:59:55;;;;;;;5.23;3.97;;;12.20;1.00;;;;;;5106733;28;20453;-68
2021/05/24 01:02:22;;;;;;;3.90;3.60;;;12.20;1.00;;;;;;5106118;28;20466;-68
2021/05/24 01:04:48;;;;;;;4.50;3.90;;;12.20;1.00;;;;;;5105344;28;20979;-68
2021/05/24 01:07:15;;;;;;;4.80;4.40;;;12.20;1.00;;;;;;5106182;28;20453;-68
2021/05/24 01:09:41;;;;;;;4.10;3.70;;;12.10;1.00;;;;;;5106578;28;20461;-68
2021/05/24 01:12:08;;;;;;;4.37;3.80;;;12.10;1.00;;;;;;5106226;28;20489;-68
2021/05/24 01:14:37;;;;;;;4.13;3.73;;;12.10;1.00;;;;;;5105891;28;20457;-68
2021/05/24 01:17:03;;;;;;;4.87;3.40;;;12.10;1.00;;;;;;5107277;28;20468;-68
2021/05/24 01:19:30;;;;;;;3.97;3.57;;;12.10;1.00;;;;;;5107592;28;20532;-68
2021/05/24 01:21:57;;;;;;;3.93;3.47;;;12.10;1.00;;;;;;5107655;28;20441;-68
2021/05/24 01:24:23;;;;;;;4.27;3.87;;;12.00;1.00;;;;;;5107482;28;20456;-68
2021/05/24 01:26:50;;;;;;;5.27;4.10;;;12.00;1.00;;;;;;5105973;28;20461;-68
2021/05/24 01:29:18;;;;;;;3.73;3.33;;;12.00;1.00;;;;;;5103819;28;20553;-68
2021/05/24 01:31:45;;;;;;;3.87;3.57;;;11.90;1.00;;;;;;5106258;28;20580;-68
2021/05/24 01:34:11;;;;;;;5.83;4.27;;;11.90;1.00;;;;;;5106442;28;20904;-68
2021/05/24 01:36:38;;;;;;;4.97;4.37;;;11.90;1.00;;;;;;5105030;28;20525;-68
2021/05/24 01:39:07;;;;;;;5.00;4.20;;;11.90;1.00;;;;;;5106452;28;20459;-68
2021/05/24 01:41:35;;;;;;;4.70;4.20;;;11.80;1.00;;;;;;5105823;28;20449;-68
2021/05/24 01:44:01;;;;;;;5.23;3.90;;;11.80;1.00;;;;;;5104694;28;20453;-68
2021/05/24 01:46:28;;;;;;;5.30;4.50;;;11.80;1.00;;;;;;5099882;28;20544;-68
2021/05/24 01:48:54;;;;;;;4.97;3.80;;;11.80;1.00;;;;;;5101300;28;20453;-67
2021/05/24 01:51:20;;;;;;;4.27;3.97;;;11.70;1.00;;;;;;5100521;28;20499;-67
2021/05/24 01:53:46;;;;;;;4.50;4.10;;;11.70;1.00;;;;;;5101072;28;20458;-67
2021/05/24 01:56:14;;;;;;;3.70;3.40;;;11.70;1.00;;;;;;5100326;28;20526;-67
2021/05/24 01:58:40;;;;;;;4.30;3.90;;;11.70;1.00;;;;;;5104734;28;20452;-67
2021/05/24 02:01:08;;;;;;;5.20;4.50;;;11.70;1.00;;;;;;5104740;28;20449;-68
2021/05/24 02:03:35;;;;;;;4.07;3.77;;;11.70;1.00;;;;;;5104948;28;20540;-67
2021/05/24 02:06:03;;;;;;;4.40;4.00;;;11.70;1.00;;;;;;5105685;28;20526;-67
2021/05/24 02:08:29;;;;;;;4.60;4.10;;;11.60;1.00;;;;;;5104677;28;20513;-67
2021/05/24 02:10:56;;;;;;;5.10;4.53;;;11.60;1.00;;;;;;5104887;28;20556;-67
2021/05/24 02:13:23;;;;;;;7.03;3.90;;;11.60;1.00;;;;;;5105694;28;20457;-68
2021/05/24 02:15:49;;;;;;;4.10;3.80;;;11.60;1.00;;;;;;5106483;28;20453;-67
2021/05/24 02:18:16;;;;;;;4.57;3.50;;;11.50;1.00;;;;;;5106031;28;20457;-68
2021/05/24 02:20:43;;;;;;;4.20;3.80;;;11.50;1.00;;;;;;5105111;28;20449;-67
2021/05/24 02:23:12;;;;;;;3.97;3.57;;;11.50;1.00;;;;;;5105995;28;20464;-67
2021/05/24 02:25:39;;;;;;;3.63;3.33;;;11.50;1.00;;;;;;5106102;28;20528;-67
2021/05/24 02:28:05;;;;;;;3.90;3.60;;;11.50;1.00;;;;;;5106835;28;20453;-67
2021/05/24 02:30:34;;;;;;;5.20;3.67;;;11.50;1.00;;;;;;5113500;28;20523;-67
2021/05/24 02:33:01;;;;;;;5.10;4.00;;;11.40;1.00;;;;;;5113474;28;20500;-67
2021/05/24 02:35:28;;;;;;;3.80;3.50;;;11.40;1.00;;;;;;5113470;28;20498;-67
2021/05/24 02:37:56;;;;;;;4.43;4.03;;;11.40;1.00;;;;;;5112161;28;20460;-68
2021/05/24 02:40:23;;;;;;;4.00;3.70;;;11.30;1.00;;;;;;5110846;28;20453;-68
2021/05/24 02:42:50;;;;;;;5.30;4.30;;;11.30;1.00;;;;;;5109736;28;20453;-67
2021/05/24 02:45:18;;;;;;;4.63;4.23;;;11.30;1.00;;;;;;5107788;28;20445;-67
2021/05/24 02:47:45;;;;;;;4.43;4.03;;;11.30;1.00;;;;;;5106330;28;20516;-68
2021/05/24 02:50:14;;;;;;;5.00;4.50;;;11.30;1.00;;;;;;5105979;28;20453;-67
2021/05/24 02:52:40;;;;;;;5.33;4.47;;;11.20;1.00;;;;;;5104429;28;20484;-67
2021/05/24 02:55:07;;;;;;;4.27;3.77;;;11.20;1.00;;;;;;5107124;28;20457;-67
2021/05/24 02:57:36;;;;;;;4.30;3.90;;;11.20;1.00;;;;;;5108801;28;20449;-67
2021/05/24 03:00:04;;;;;;;4.80;4.27;;;11.20;1.00;;;;;;5108477;28;20978;-67
2021/05/24 03:02:30;;;;;;;6.30;4.90;;;11.10;1.00;;;;;;5109451;28;20514;-67
2021/05/24 03:04:58;;;;;;;4.30;3.90;;;11.10;1.00;;;;;;5107982;28;20945;-67
2021/05/24 03:07:24;;;;;;;4.30;4.00;;;11.10;1.00;;;;;;5105233;28;20526;-67
2021/05/24 03:09:50;;;;;;;4.13;3.73;;;11.10;1.00;;;;;;5103468;28;20468;-68
2021/05/24 03:12:17;;;;;;;4.70;4.20;;;11.10;1.00;;;;;;5102798;28;20478;-66
2021/05/24 03:14:43;;;;;;;5.00;4.10;;;11.00;1.00;;;;;;5104114;28;20457;-67
2021/05/24 03:17:09;;;;;;;3.80;3.50;;;11.00;1.00;;;;;;5102965;28;20509;-67
2021/05/24 03:19:36;;;;;;;4.63;4.20;;;11.00;1.00;;;;;;5103677;28;20469;-68
2021/05/24 03:22:06;;;;;;;5.27;4.20;;;11.00;1.00;;;;;;5104380;28;20461;-67
2021/05/24 03:24:32;;;;;;;4.03;3.73;;;11.00;1.00;;;;;;5104193;28;20460;-68
2021/05/24 03:26:58;;;;;;;4.93;4.43;;;11.00;1.00;;;;;;5104297;28;20464;-67
2021/05/24 03:29:24;;;;;;;5.07;4.57;;;11.00;1.00;;;;;;5103459;28;20823;-71
2021/05/24 03:31:52;;;;;;;4.60;4.20;;;11.00;1.00;;;;;;5103415;28;20812;-68
2021/05/24 03:34:19;;;;;;;4.83;4.03;;;11.00;1.00;;;;;;5103978;28;20457;-68
2021/05/24 03:36:46;;;;;;;4.43;3.60;;;11.00;1.00;;;;;;5103758;28;20487;-68
2021/05/24 03:39:13;;;;;;;4.97;3.80;;;11.00;1.00;;;;;;5104899;28;20502;-68
2021/05/24 03:41:39;;;;;;;6.13;3.93;;;11.10;1.00;;;;;;5105805;28;20469;-68
2021/05/24 03:44:06;;;;;;;9.40;4.43;;;11.10;1.00;;;;;;5104924;28;20513;-67
2021/05/24 03:46:32;;;;;;;4.03;3.73;;;11.10;1.00;;;;;;5105600;28;20515;-68
2021/05/24 03:49:00;;;;;;;4.00;3.40;;;11.10;1.00;;;;;;5104646;28;20504;-67
2021/05/24 03:51:26;;;;;;;4.20;3.90;;;11.10;1.00;;;;;;5104470;28;20481;-67
2021/05/24 03:53:53;;;;;;;4.07;3.63;;;11.10;1.00;;;;;;5105149;28;20450;-68
2021/05/24 03:56:20;;;;;;;5.20;3.90;;;11.10;1.00;;;;;;5105037;28;20925;-67
2021/05/24 03:58:46;;;;;;;4.03;3.73;;;11.10;1.00;;;;;;5104923;28;20746;-68
2021/05/24 04:01:14;;;;;;;4.23;3.90;;;11.10;1.00;;;;;;5103799;28;20513;-68
2021/05/24 04:03:41;;;;;;;4.13;3.83;;;11.10;1.00;;;;;;5103726;28;20520;-68
2021/05/24 04:06:08;;;;;;;5.40;3.93;;;11.20;1.00;;;;;;5103608;28;20538;-67
2021/05/24 04:08:36;;;;;;;5.10;3.90;;;11.20;1.00;;;;;;5103637;28;20504;-68
2021/05/24 04:11:04;;;;;;;4.43;3.97;;;11.20;1.00;;;;;;5103432;28;20489;-68
2021/05/24 04:13:32;;;;;;;4.57;4.17;;;11.30;1.00;;;;;;5102662;28;20512;-68
2021/05/24 04:15:58;;;;;;;3.70;3.40;;;11.30;1.00;;;;;;5103653;28;20485;-68
2021/05/24 04:18:26;;;;;;;3.90;3.50;;;11.40;1.00;;;;;;5103813;28;20453;-67
2021/05/24 04:20:53;;;;;;;5.40;3.67;;;11.40;1.00;;;;;;5104386;28;20453;-67
2021/05/24 04:23:20;;;;;;;4.03;3.53;;;11.40;1.00;;;;;;5104675;28;20453;-68
2021/05/24 04:25:46;;;;;;;8.60;5.97;;;11.50;1.00;;;;;;5104708;28;20540;-69
2021/05/24 04:28:12;;;;;;;5.40;3.60;;;11.50;1.00;;;;;;5111754;28;20512;-69
2021/05/24 04:30:40;;;;;;;4.80;3.33;;;11.50;1.00;;;;;;5105793;28;20453;-68
2021/05/24 04:33:06;;;;;;;5.53;3.60;;;11.60;1.00;;;;;;5103119;28;20489;-68
2021/05/24 04:35:33;;;;;;;4.17;3.57;;;11.60;1.00;;;;;;5103674;28;20460;-68
2021/05/24 04:37:59;;;;;;;3.70;3.40;;;11.70;99.90;;;;;;5103805;28;20468;-68
2021/05/24 04:40:25;;;;;;;3.90;3.60;;;11.70;99.90;;;;;;5103642;28;20521;-68
2021/05/24 04:42:55;;;;;;;4.10;3.80;;;11.70;99.90;;;;;;5104046;28;20449;-68
2021/05/24 04:45:22;;;;;;;3.90;3.60;;;11.70;99.90;;;;;;5104437;28;20773;-69
2021/05/24 04:47:50;;;;;;;4.17;3.77;;;11.80;99.90;;;;;;5104017;28;20479;-69
2021/05/24 04:50:16;;;;;;;5.13;3.90;;;11.80;99.90;;;;;;5104091;28;20449;-69
2021/05/24 04:52:42;;;;;;;3.47;3.10;;;11.90;99.90;;;;;;5104791;28;20473;-69
2021/05/24 04:55:11;;;;;;;3.90;3.50;;;11.90;99.90;;;;;;5104309;28;20480;-68
2021/05/24 04:57:37;;;;;;;3.40;3.10;;;11.90;99.90;;;;;;5105179;28;20457;-69
2021/05/24 05:00:05;;;;;;;3.47;2.97;;;12.00;99.90;;;;;;5104195;28;20449;-68
2021/05/24 05:02:31;;;;;;;3.40;3.10;;;12.00;99.90;;;;;;5103628;28;20457;-68
2021/05/24 05:04:58;;;;;;;3.70;3.13;;;12.10;99.90;;;;;;5104002;28;20469;-68
2021/05/24 05:07:25;;;;;;;3.30;2.93;;;12.10;99.90;;;;;;5104777;28;20457;-68
2021/05/24 05:09:51;;;;;;;3.73;3.00;;;12.20;99.90;;;;;;5103996;28;20454;-68
2021/05/24 05:12:20;;;;;;;5.10;3.20;;;12.30;99.90;;;;;;5104196;28;20507;-69
2021/05/24 05:14:46;;;;;;;3.53;3.10;;;12.30;99.90;;;;;;5104931;28;20468;-68
2021/05/24 05:17:12;;;;;;;3.20;2.90;;;12.40;99.90;;;;;;5104993;28;20453;-68
2021/05/24 05:19:38;;;;;;;4.83;2.93;;;12.50;99.90;;;;;;5103717;28;20453;-68
2021/05/24 05:22:05;;;;;;;2.93;2.33;;;12.60;99.90;;;;;;5104225;28;20454;-68
2021/05/24 05:24:32;;;;;;;3.90;2.80;;;12.60;99.90;;;;;;5103099;28;20461;-68
2021/05/24 05:26:58;;;;;;;3.37;2.80;;;12.70;99.90;;;;;;5103547;28;20459;-68
2021/05/24 05:29:24;;;;;;;3.10;2.80;;;12.70;99.90;;;;;;5104095;28;20463;-69
2021/05/24 05:31:50;;;;;;;5.43;2.93;;;12.80;99.90;;;;;;5103195;28;20489;-68
2021/05/24 05:34:17;;;;;;;2.77;2.10;;;12.90;99.90;;;;;;5103456;28;20464;-68
2021/05/24 05:36:43;;;;;;;2.43;1.80;;;12.90;99.90;;;;;;5102900;28;20472;-68
2021/05/24 05:39:10;;;;;;;2.53;2.10;;;12.90;1.00;;;;;;5103319;28;20480;-69
2021/05/24 05:41:36;;;;;;;2.63;2.43;;;13.00;1.00;;;;;;5104225;28;20589;-68
2021/05/24 05:44:03;;;;;;;3.00;2.20;;;13.00;1.00;;;;;;5103189;28;20457;-68
2021/05/24 05:46:30;;;;;;;1.90;1.70;;;13.00;1.00;;;;;;5102924;28;20460;-68
2021/05/24 05:48:56;;;;;;;2.37;2.10;;;13.10;99.90;;;;;;5103680;28;20468;-68
2021/05/24 05:51:22;;;;;;;2.37;2.10;;;13.20;99.90;;;;;;5104361;28;20474;-68
2021/05/24 05:53:49;;;;;;;2.53;2.00;;;13.20;99.90;;;;;;5103665;28;20450;-68
2021/05/24 05:56:16;;;;;;;2.40;2.20;;;13.30;99.90;;;;;;5103724;28;20453;-68
2021/05/24 05:58:42;;;;;;;2.53;2.10;;;13.30;3.60;;;;;;5104299;28;20457;-68
2021/05/24 06:01:08;;;;;;;3.33;2.60;;;13.30;1.00;;;;;;5102968;28;20453;-69
2021/05/24 06:03:35;;;;;;;2.20;2.00;;;13.30;1.00;;;;;;5102965;28;20506;-68
2021/05/24 06:06:04;;;;;;;2.53;2.20;;;13.40;1.00;;;;;;5102863;28;20778;-68
2021/05/24 06:08:30;;;;;;;2.43;2.23;;;13.50;1.00;;;;;;5103568;28;20449;-68
2021/05/24 06:10:57;;;;;;;2.43;2.23;;;13.50;1.00;;;;;;5102233;28;20461;-69
2021/05/24 06:13:24;;;;;;;3.10;2.30;;;13.50;1.00;;;;;;5102859;28;20464;-68
2021/05/24 06:15:53;;;;;;;2.33;2.13;;;13.60;1.00;;;;;;5102911;28;20453;-68
2021/05/24 06:18:19;;;;;;;3.30;1.73;;;13.70;1.00;;;;;;5103612;28;20464;-67
2021/05/24 06:20:47;;;;;;;2.80;1.77;;;13.70;1.00;;;;;;5102550;28;20471;-67
2021/05/24 06:23:14;;;;;;;2.13;1.80;;;13.80;1.00;;;;;;5103441;28;20840;-68
2021/05/24 06:25:41;;;;;;;2.13;1.83;;;13.90;1.00;;;;;;5102735;28;20468;-67
2021/05/24 06:28:08;;;;;;;2.53;2.17;;;14.00;1.00;;;;;;5102706;28;20449;-68
2021/05/24 06:30:36;;;;;;;1.93;1.77;;;14.10;1.00;;;;;;5102874;28;20446;-67
2021/05/24 06:33:02;;;;;;;1.90;1.70;;;14.20;99.90;;;;;;5102367;28;20961;-68
2021/05/24 06:35:29;;;;;;;2.50;1.53;;;14.30;99.90;;;;;;5103142;28;20913;-68
2021/05/24 06:37:55;;;;;;;4.70;2.00;;;14.30;99.90;;;;;;5102360;28;20454;-68
2021/05/24 06:40:21;;;;;;;4.93;1.60;;;14.40;99.90;;;;;;5102218;28;20457;-68
2021/05/24 06:42:48;;;;;;;2.53;1.77;;;14.50;99.90;;;;;;5101801;28;20453;-68
2021/05/24 06:45:15;;;;;;;3.50;2.10;;;14.50;89.60;;;;;;5105508;28;20460;-68
2021/05/24 06:47:42;;;;;;;2.20;1.90;;;14.60;1.00;;;;;;5106007;28;20456;-68
2021/05/24 06:50:09;;;;;;;2.00;1.70;;;14.70;1.00;;;;;;5105558;28;20463;-68
2021/05/24 06:52:36;;;;;;;1.83;1.50;;;14.70;1.00;;;;;;5105806;28;20481;-67
2021/05/24 06:55:02;;;;;;;2.70;1.93;;;14.80;1.00;;;;;;5105206;28;20481;-67
2021/05/24 06:57:28;;;;;;;1.60;1.47;;;14.80;1.00;;;;;;5106532;28;20925;-67
2021/05/24 06:59:55;;;;;;;2.87;2.10;;;14.90;1.00;;;;;;5105926;28;20457;-67
2021/05/24 07:02:21;;;;;;;3.93;1.97;;;15.00;1.00;;;;;;5105010;28;20767;-68
2021/05/24 07:04:48;;;;;;;1.70;1.60;;;15.10;1.00;;;;;;5105835;28;20467;-67
2021/05/24 07:07:14;;;;;;;2.63;1.70;;;15.20;1.00;;;;;;5106177;28;20893;-68
2021/05/24 07:09:40;;;;;;;1.53;1.40;;;15.30;1.00;;;;;;5105740;28;20457;-68
2021/05/24 07:12:10;;;;;;;2.07;1.60;;;15.40;1.00;;;;;;5105797;28;20488;-68
2021/05/24 07:14:37;;;;;;;1.57;1.30;;;15.60;1.00;;;;;;5107209;28;20458;-69
2021/05/24 07:17:03;;;;;;;2.80;1.37;;;15.60;1.00;;;;;;5104170;28;20560;-68
2021/05/24 07:19:29;;;;;;;1.57;1.47;;;15.80;1.00;;;;;;5104240;28;20457;-68
2021/05/24 07:21:57;;;;;;;2.37;1.30;;;15.90;1.00;;;;;;5104931;28;20453;-69
2021/05/24 07:24:23;;;;;;;2.03;1.63;;;16.00;1.00;;;;;;5104768;28;20460;-68
2021/05/24 07:26:50;;;;;;;2.63;1.80;;;16.00;1.00;;;;;;5105383;28;20473;-68
2021/05/24 07:29:17;;;;;;;2.10;1.90;;;16.10;1.00;;;;;;5104356;28;20495;-67
2021/05/24 07:31:43;;;;;;;3.20;1.67;;;16.20;1.00;;;;;;5104763;28;20481;-67
2021/05/24 07:34:09;;;;;;;4.17;1.30;;;16.30;1.00;;;;;;5104776;28;20461;-67
2021/05/24 07:36:35;;;;;;;1.90;1.50;;;16.40;99.90;;;;;;5105105;28;20461;-68
2021/05/24 07:39:04;;;;;;;2.47;1.37;;;16.40;99.90;;;;;;5104538;28;20778;-68
2021/05/24 07:41:30;;;;;;;1.90;1.40;;;16.50;99.90;;;;;;5099286;28;20445;-69
2021/05/24 07:43:56;;;;;;;1.60;1.30;;;16.60;99.90;;;;;;5097488;28;20626;-68
2021/05/24 07:46:22;;;;;;;2.50;1.37;;;16.70;99.90;;;;;;5097539;28;20510;-68
2021/05/24 07:48:49;;;;;;;2.33;1.40;;;16.80;99.90;;;;;;5097020;28;20472;-68
2021/05/24 07:51:15;;;;;;;1.60;1.40;;;16.90;99.90;;;;;;5097091;28;20457;-68
2021/05/24 07:53:41;;;;;;;1.40;1.20;;;16.90;99.90;;;;;;5097944;28;20453;-68
2021/05/24 07:56:08;;;;;;;1.50;1.13;;;16.90;99.90;;;;;;5096492;28;20464;-68
2021/05/24 07:58:34;;;;;;;5.60;1.73;;;17.00;99.90;;;;;;5097120;28;20453;-68
2021/05/24 08:01:01;;;;;;;1.90;1.00;;;17.00;99.90;;;;;;5101913;28;20469;-70
2021/05/24 08:03:27;;;;;;;1.50;1.00;;;17.00;99.90;;;;;;5101213;28;20460;-68
2021/05/24 08:05:53;;;;;;;1.30;1.17;;;17.00;99.90;;;;;;5098222;28;20449;-69
2021/05/24 08:08:20;;;;;;;2.00;1.20;;;17.00;99.90;;;;;;5096790;28;20810;-71
2021/05/24 08:10:46;;;;;;;2.30;1.10;;;17.10;99.90;;;;;;5097662;28;20456;-68
2021/05/24 08:13:14;;;;;;;1.40;0.93;;;17.20;96.90;;;;;;5096950;28;20477;-68
2021/05/24 08:15:40;;;;;;;5.10;1.20;;;17.30;81.60;;;;;;5096677;28;20561;-69
2021/05/24 08:18:08;;;;;;;2.50;1.10;;;17.40;90.40;;;;;;5096771;28;20468;-69
2021/05/24 08:20:35;;;;;;;7.03;1.07;;;17.50;35.00;;;;;;5096529;28;20461;-69
2021/05/24 08:23:02;;;;;;;1.80;1.00;;;17.50;25.40;;;;;;5096796;28;20449;-68
2021/05/24 08:25:28;;;;;;;3.63;1.17;;;17.50;14.70;;;;;;5096632;28;20978;-69
2021/05/24 08:27:54;;;;;;;1.30;1.00;;;17.60;8.50;;;;;;5096205;28;20453;-69
2021/05/24 08:30:22;;;;;;;2.00;1.17;;;17.70;1.30;;;;;;5096693;28;20552;-68
2021/05/24 08:32:48;;;;;;;2.70;1.00;;;17.80;1.00;;;;;;5096206;28;20489;-68
2021/05/24 08:35:14;;;;;;;3.93;1.57;;;18.00;1.00;;;;;;5096224;28;20785;-68
2021/05/24 08:37:41;;;;;;;1.83;0.90;;;18.20;1.00;;;;;;5096096;28;20484;-68
2021/05/24 08:40:08;;;;;;;3.07;1.33;;;18.30;1.00;;;;;;5095761;28;20453;-68
2021/05/24 08:42:38;;;;;;;1.50;0.90;;;18.30;1.00;;;;;;5095994;28;20967;-67
2021/05/24 08:45:06;;;;;;;1.20;0.87;;;18.30;1.00;;;;;;5096482;28;20503;-68
2021/05/24 08:47:34;;;;;;;1.63;0.80;;;18.30;1.00;;;;;;5096563;28;20480;-68
2021/05/24 08:50:00;;;;;;;1.60;1.33;;;18.40;1.00;;;;;;5096276;28;20457;-68
2021/05/24 08:52:28;;;;;;;1.47;1.00;;;18.40;1.00;;;;;;5095869;28;20506;-68
2021/05/24 08:54:55;;;;;;;2.00;1.00;;;18.50;1.00;;;;;;5096361;28;20453;-68
2021/05/24 08:57:21;;;;;;;2.70;1.03;;;18.70;1.00;;;;;;5095686;28;20453;-69
2021/05/24 08:59:47;;;;;;;1.30;0.80;;;18.70;1.00;;;;;;5096092;28;20484;-68
2021/05/24 09:02:14;;;;;;;1.30;0.90;;;18.90;1.00;;;;;;5095698;28;20453;-67
2021/05/24 09:04:43;;;;;;;1.53;0.90;;;19.10;1.00;;;;;;5095997;28;20458;-68
2021/05/24 09:07:10;;;;;;;1.50;1.00;;;19.20;1.00;;;;;;5094994;28;20492;-68
2021/05/24 09:09:36;;;;;;;1.77;0.90;;;19.30;1.00;;;;;;5095460;28;20911;-67
2021/05/24 09:12:05;;;;;;;1.37;0.83;;;19.30;1.00;;;;;;5095523;28;20488;-69
2021/05/24 09:14:32;;;;;;;1.47;1.00;;;19.20;1.00;;;;;;5096422;28;20493;-68
2021/05/24 09:16:59;;;;;;;2.17;0.80;;;19.10;1.00;;;;;;5095928;28;20458;-69
2021/05/24 09:19:27;;;;;;;1.13;0.93;;;19.10;1.00;;;;;;5095822;28;20464;-68
2021/05/24 09:21:56;;;;;;;1.50;1.20;;;19.10;1.00;;;;;;5096095;28;20453;-68
2021/05/24 09:24:27;;;;;;;4.03;1.10;;;19.20;1.00;;;;;;5095948;28;20458;-68
2021/05/24 09:26:53;;;;;;;1.60;0.90;;;19.20;1.00;;;;;;5096193;28;20760;-68
2021/05/24 09:29:23;;;;;;;6.20;0.87;;;19.20;1.00;;;;;;5096036;28;20457;-68
2021/05/24 09:32:09;;;;;;;1.20;0.77;;;19.30;1.00;;;;;;5095609;28;20790;-68
2021/05/24 09:34:35;;;;;;;2.77;1.00;;;19.20;1.00;;;;;;5095993;28;20472;-68
2021/05/24 09:37:02;;;;;;;2.87;0.70;;;19.20;1.00;;;;;;5096445;28;20457;-67
2021/05/24 09:39:32;;;;;;;1.47;0.80;;;19.20;1.00;;;;;;5097406;28;20994;-68
2021/05/24 09:42:01;;;;;;;1.50;0.90;;;19.30;1.00;;;;;;5098007;28;20453;-68
2021/05/24 09:44:30;;;;;;;1.90;1.17;;;19.50;1.00;;;;;;5098940;28;20540;-68
2021/05/24 09:46:57;;;;;;;1.17;0.87;;;19.60;1.00;;;;;;5096632;28;20462;-68
2021/05/24 09:49:27;;;;;;;1.60;0.90;;;19.60;1.00;;;;;;5095943;28;20457;-68
2021/05/24 09:51:53;;;;;;;2.03;1.17;;;19.70;1.00;;;;;;5095425;28;20477;-68
2021/05/24 09:54:23;;;;;;;2.67;1.00;;;19.70;1.00;;;;;;5096336;28;20457;-69
2021/05/24 09:56:50;;;;;;;1.20;0.90;;;19.70;1.00;;;;;;5095770;28;20918;-68
2021/05/24 09:59:18;;;;;;;2.00;1.03;;;19.70;1.00;;;;;;5098594;28;20640;-68
2021/05/24 10:01:50;;;;;;;1.73;1.10;;;19.80;1.00;;;;;;5096688;28;20493;-68
2021/05/24 10:04:17;;;;;;;1.67;0.90;;;20.00;1.00;;;;;;5095428;28;20445;-69
2021/05/24 10:06:45;;;;;;;2.40;0.83;;;20.20;1.00;;;;;;5095376;28;20457;-69
2021/05/24 10:09:13;;;;;;;1.23;0.87;;;20.40;1.00;;;;;;5095848;28;20453;-68
2021/05/24 10:11:43;;;;;;;1.40;0.80;;;20.60;1.00;;;;;;5095170;28;20972;-68
2021/05/24 10:14:11;;;;;;;1.40;0.80;;;20.60;1.00;;;;;;5096462;28;20449;-68
2021/05/24 10:16:40;;;;;;;1.33;0.90;;;20.60;1.00;;;;;;5097443;28;20766;-68
2021/05/24 10:19:07;;;;;;;1.40;0.80;;;20.60;1.00;;;;;;5102857;28;20767;-68
2021/05/24 10:21:33;;;;;;;3.30;1.00;;;20.70;1.00;;;;;;5107103;28;20464;-68
2021/05/24 10:24:00;;;;;;;1.20;0.90;;;20.60;1.00;;;;;;5105060;28;20955;-68
2021/05/24 10:26:28;;;;;;;1.23;0.83;;;20.60;1.00;;;;;;5106038;28;20458;-68
2021/05/24 10:28:57;;;;;;;1.20;0.70;;;20.50;1.00;;;;;;5106378;28;20453;-68
2021/05/24 10:31:25;;;;;;;1.50;0.93;;;20.60;1.00;;;;;;5104486;28;20806;-68
2021/05/24 10:33:52;;;;;;;1.20;0.80;;;20.80;1.00;;;;;;5103345;28;20472;-68
2021/05/24 10:36:21;;;;;;;2.37;0.90;;;21.00;1.00;;;;;;5103112;28;20457;-68
2021/05/24 10:39:08;;;;;;;3.63;1.00;;;21.10;1.00;;;;;;5105331;28;20499;-68
2021/05/24 10:41:49;;;;;;;1.23;0.87;;;21.30;1.00;;;;;;5105666;28;20471;-68
2021/05/24 10:44:18;;;;;;;1.27;0.87;;;21.40;1.00;;;;;;5104414;28;20445;-68
2021/05/24 10:46:45;;;;;;;2.20;0.90;;;21.60;1.00;;;;;;5107405;28;20483;-68
2021/05/24 10:49:20;;;;;;;1.50;1.07;;;21.80;1.00;;;;;;5106192;28;20530;-68
2021/05/24 10:51:51;;;;;;;1.30;0.80;;;21.90;1.00;;;;;;5104213;28;20818;-68
2021/05/24 10:54:29;;;;;;;2.20;0.90;;;22.00;1.00;;;;;;5104997;28;20457;-68
2021/05/24 10:57:17;;;;;;;2.40;1.00;;;22.10;1.00;;;;;;5106048;28;20437;-68
2021/05/24 10:59:56;;;;;;;1.40;0.80;;;22.00;1.00;;;;;;5105151;28;20430;-68
2021/05/24 11:02:37;;;;;;;1.20;0.80;;;22.10;1.00;;;;;;5107569;28;20744;-68
2021/05/24 11:05:26;;;;;;;1.30;0.80;;;22.10;1.00;;;;;;5106022;28;20433;-68
2021/05/24 11:07:56;;;;;;;1.30;0.83;;;21.90;1.00;;;;;;5106169;28;20430;-68
2021/05/24 11:10:33;;;;;;;1.50;0.70;;;21.50;1.00;;;;;;5105653;28;20434;-68
2021/05/24 11:13:28;;;;;;;1.83;0.80;;;21.40;1.00;;;;;;5106446;28;20461;-68
2021/05/24 11:16:11;;;;;;;1.10;0.80;;;21.60;1.00;;;;;;5106057;28;20457;-68
2021/05/24 11:18:41;;;;;;;1.60;0.80;;;21.90;1.00;;;;;;5104971;28;20446;-68
2021/05/24 11:21:25;;;;;;;4.70;0.87;;;22.60;1.00;;;;;;5106632;28;20437;-68
2021/05/24 11:26:33;;;;;;;1.43;0.70;;;23.90;1.00;;;;;;5104350;28;20711;-68
2021/05/24 11:29:06;;;;;;;2.80;0.90;;;24.40;1.00;;;;;;5104531;28;20468;-68
2021/05/24 11:31:48;;;;;;;2.20;0.80;;;24.40;1.00;;;;;;5102821;28;20449;-67
2021/05/24 11:34:29;;;;;;;1.50;0.90;;;24.20;1.00;;;;;;5108162;28;20461;-68
2021/05/24 11:36:57;;;;;;;2.90;0.90;;;24.70;1.00;;;;;;5105885;28;20429;-68
2021/05/24 11:39:31;;;;;;;4.40;0.70;;;25.20;1.00;;;;;;5104860;28;20467;-69
2021/05/24 11:41:59;;;;;;;2.20;1.00;;;25.70;1.00;;;;;;5103187;28;20528;-68
2021/05/24 11:44:29;;;;;;;1.20;0.80;;;26.40;1.00;;;;;;5100835;28;20524;-68
2021/05/24 11:46:58;;;;;;;1.20;0.90;;;27.00;1.00;;;;;;5102009;28;20453;-68
2021/05/24 11:49:33;;;;;;;1.33;0.83;;;27.40;1.00;;;;;;5100910;28;20543;-67
2021/05/24 11:51:59;;;;;;;3.60;0.97;;;27.70;1.00;;;;;;5099477;28;20487;-69
2021/05/24 11:54:26;;;;;;;2.40;0.90;;;27.60;1.00;;;;;;5104656;28;20449;-68
2021/05/24 11:56:54;;;;;;;1.40;0.70;;;27.90;1.00;;;;;;5105109;28;20457;-68
2021/05/24 11:59:22;;;;;;;1.47;0.90;;;28.10;1.00;;;;;;5104802;28;20457;-69
2021/05/24 12:01:50;;;;;;;1.63;0.80;;;27.90;1.00;;;;;;5105606;28;20460;-67
2021/05/24 12:04:20;;;;;;;1.20;0.90;;;27.20;1.00;;;;;;5104993;28;20484;-67
2021/05/24 12:06:49;;;;;;;1.67;1.10;;;26.70;1.00;;;;;;5101807;28;20716;-68
2021/05/24 12:09:33;;;;;;;1.10;0.80;;;26.20;1.00;;;;;;5104657;28;20472;-68
2021/05/24 12:12:00;;;;;;;1.10;0.70;;;26.30;1.00;;;;;;5102339;28;20476;-67
2021/05/24 12:14:27;;;;;;;1.97;1.00;;;26.70;1.00;;;;;;5101729;28;20457;-68
2021/05/24 12:16:55;;;;;;;1.87;0.87;;;27.20;1.00;;;;;;5098743;28;20921;-68
2021/05/24 12:19:24;;;;;;;1.77;0.80;;;27.30;1.00;;;;;;5097809;28;20511;-68
2021/05/24 12:21:51;;;;;;;3.17;1.03;;;27.00;1.00;;;;;;5100996;28;20514;-68
2021/05/24 12:24:19;;;;;;;1.60;0.87;;;26.50;1.00;;;;;;5101493;28;20496;-67
2021/05/24 12:26:49;;;;;;;1.13;0.80;;;26.00;1.00;;;;;;5104404;28;20457;-67
2021/05/24 12:29:20;;;;;;;1.00;0.80;;;25.80;1.00;;;;;;5106338;28;20437;-68
2021/05/24 12:31:47;;;;;;;1.30;0.80;;;26.10;1.00;;;;;;5105327;28;20484;-67
2021/05/24 12:34:15;;;;;;;1.60;0.80;;;27.00;1.00;;;;;;5106544;28;20434;-67
2021/05/24 12:36:46;;;;;;;1.20;0.73;;;28.00;1.00;;;;;;5106025;28;20468;-67
2021/05/24 12:39:18;;;;;;;1.70;0.80;;;28.70;1.00;;;;;;5106491;28;20754;-68
2021/05/24 12:41:45;;;;;;;1.10;0.80;;;28.30;1.00;;;;;;5099109;28;20869;-67
2021/05/24 12:44:11;;;;;;;1.30;0.73;;;27.70;1.00;;;;;;5106197;28;20957;-68
2021/05/24 12:46:42;;;;;;;3.93;0.93;;;27.50;1.00;;;;;;5104308;28;20918;-68
2021/05/24 12:49:08;;;;;;;1.50;0.80;;;27.60;1.00;;;;;;5101337;28;20917;-67
2021/05/24 12:51:35;;;;;;;1.10;0.70;;;27.80;1.00;;;;;;5100151;28;20784;-67
2021/05/24 12:54:04;;;;;;;1.23;0.80;;;28.20;1.00;;;;;;5100449;28;20452;-67
2021/05/24 12:56:36;;;;;;;9.80;2.20;;;28.50;1.00;;;;;;5100166;28;20454;-68
2021/05/24 12:59:12;;;;;;;1.30;0.70;;;28.90;1.00;;;;;;5100817;28;20483;-68
2021/05/24 13:01:38;;;;;;;1.50;1.00;;;29.40;1.00;;;;;;5099752;28;20437;-68